HAP weather

Los Pirules Heliport
Naucalpan, Mexico, Mexico

Public forecast

Using degrees Celsius for public forecast. Weather courtesy of forecast.io.

METAR (pilot weather report)

Closest report is Licenciado Benito Juarez International Airport, 10.1 nm (18.6 km) ESE. Retrieved 2019/06/25 12:45 UTC (45 minutes ago):

MMMX 251245Z 32004KT 12SM FEW015 SCT020 BKN080 BKN200 15/11 A3030 NOSIG RMK 8/578 OCNL DROPS LWR SC 3TH QUAD

TAF (pilot weather forecast)

Closest forecast is Licenciado Benito Juarez International Airport, 10.1 nm (18.6 km) ESE. Retrieved 2019/06/25 12:44 UTC (46 minutes ago):

TAF COR MMMX 251037Z 2512/2618 11004KT P6SM SCT025 OVC080 TX23/2521Z TN15/2512Z TEMPO 2512/2515 6SM -RA FM251800 10010KT P6SM BKN020 OVC080 BECMG 2521/2523 5SM -RA TEMPO 2523/2603 4SM TSRA BKN020CB FM260800 02005KT P6SM SCT025 BKN090 BKN220 FM261300 02005KT 5SM HZ SCT020 SCT090 BKN200